createdAt,value
2016-08-07T07:36:13.838Z,61.9
2016-08-07T07:36:23.861Z,61.6
2016-08-07T07:36:33.848Z,61.8
2016-08-07T07:36:43.860Z,62
2016-08-07T07:36:53.857Z,62.1
2016-08-07T07:37:03.860Z,62.7
2016-08-07T07:37:13.869Z,63.1
2016-08-07T07:37:23.870Z,63.4
2016-08-07T07:37:43.889Z,63.9
2016-08-07T07:37:54.144Z,63.9
2016-08-07T07:38:04.002Z,64.2
2016-08-07T07:38:13.899Z,64.1
2016-08-07T07:38:23.897Z,64.4
2016-08-07T07:38:33.908Z,64.3
2016-08-07T07:38:43.906Z,64.6
2016-08-07T07:38:53.909Z,64.4
2016-08-07T07:39:03.917Z,64.6
2016-08-07T07:39:13.919Z,64.5
2016-08-07T07:39:23.926Z,65
2016-08-07T07:39:33.929Z,65.2
2016-08-07T07:39:43.937Z,65.6
2016-08-07T07:39:53.946Z,66.2
2016-08-07T07:40:03.947Z,67
2016-08-07T07:40:14.387Z,67
2016-08-07T07:40:23.953Z,67.1
2016-08-07T07:40:33.963Z,67
2016-08-07T07:40:43.961Z,67.2
2016-08-07T07:40:53.968Z,67.2
2016-08-07T07:41:03.974Z,67.7
2016-08-07T07:41:14.215Z,68.7
2016-08-07T07:41:23.980Z,69.1
2016-08-07T07:41:33.987Z,69.9
2016-08-07T07:41:43.993Z,70.7
2016-08-07T07:41:53.997Z,71.1
2016-08-07T07:42:04.002Z,71.5
2016-08-07T07:42:14.007Z,71.8
2016-08-07T07:42:23.280Z,72.4
2016-08-07T07:42:34.014Z,72.4
2016-08-07T07:42:44.022Z,72.2
2016-08-07T07:42:54.031Z,72.4
2016-08-07T07:43:04.040Z,72.1
2016-08-07T07:43:14.034Z,73
2016-08-07T07:43:24.233Z,72.9
2016-08-07T07:43:34.045Z,73.7
2016-08-07T07:43:44.067Z,73.8
2016-08-07T07:43:54.054Z,74
2016-08-07T07:44:04.059Z,74.7
2016-08-07T07:44:14.063Z,74.7
2016-08-07T07:44:24.078Z,74.8
2016-08-07T07:44:33.344Z,74.8
2016-08-07T07:44:44.078Z,75.2
2016-08-07T07:44:54.088Z,75.3
2016-08-07T07:45:04.088Z,75.4
2016-08-07T07:45:13.374Z,75.3
2016-08-07T07:45:24.098Z,75.2
2016-08-07T07:45:34.101Z,75.9
2016-08-07T07:45:44.106Z,75.8
2016-08-07T07:45:54.113Z,76.1
2016-08-07T07:46:04.116Z,76.7
2016-08-07T07:46:14.131Z,76.8
2016-08-07T07:46:23.843Z,76.5
2016-08-07T07:46:34.152Z,76.3
2016-08-07T07:46:44.141Z,76.8
2016-08-07T07:46:54.144Z,77.1
2016-08-07T07:47:04.143Z,77.4
2016-08-07T07:47:14.151Z,77.4
2016-08-07T07:47:24.154Z,77.2
2016-08-07T07:47:34.158Z,77.4
2016-08-07T07:47:44.167Z,77.2
2016-08-07T07:47:54.167Z,77.4
2016-08-07T07:48:04.174Z,77.9
2016-08-07T08:01:57.615Z,75.6
2016-08-07T08:02:07.618Z,75.4
2016-08-07T08:02:17.628Z,75.8
2016-08-07T08:02:27.651Z,75.8
2016-08-07T08:02:37.632Z,75.4
2016-08-07T08:02:47.638Z,73.9
2016-08-07T08:02:57.645Z,72.7
2016-08-07T08:03:07.647Z,71.8
2016-08-07T08:03:17.652Z,71.1
2016-08-07T08:03:27.656Z,70.4
2016-08-07T08:03:36.931Z,69.9
2016-08-07T08:03:47.668Z,68.9
2016-08-07T08:03:57.670Z,69.2
2016-08-07T08:04:07.677Z,69.2
2016-08-07T08:04:17.679Z,69.2
2016-08-07T08:04:27.687Z,69.3
2016-08-07T08:04:37.690Z,69.6
2016-08-07T08:04:47.694Z,69.5
2016-08-07T08:04:57.701Z,70
2016-08-07T08:05:07.705Z,70.4
2016-08-07T08:05:17.712Z,70.4
2016-08-07T08:05:27.720Z,69.9
2016-08-07T08:05:37.720Z,69.4
2016-08-07T08:05:47.727Z,69.2
2016-08-07T08:05:57.729Z,69
2016-08-07T08:06:07.733Z,69.5
2016-08-07T08:06:17.739Z,69.7
2016-08-07T08:06:27.747Z,69.4
2016-08-07T08:06:37.748Z,68.1
2016-08-07T08:06:47.756Z,68.3
2016-08-07T08:06:57.761Z,67.3
2016-08-07T08:07:07.779Z,67.4
2016-08-07T08:07:17.775Z,67.1
2016-08-07T08:07:27.774Z,66.8
2016-08-07T08:07:37.780Z,66.8
2016-08-07T08:07:57.789Z,67.1
2016-08-07T08:08:07.801Z,67.1
2016-08-07T08:08:17.802Z,67.1
2016-08-07T08:08:27.803Z,67.1
2016-08-07T08:08:37.808Z,67
2016-08-07T08:08:47.814Z,67
2016-08-07T08:08:57.820Z,66.7
2016-08-07T08:09:07.823Z,66.9
2016-08-07T08:09:17.830Z,66.8
2016-08-07T08:09:27.835Z,67.3
2016-08-07T08:09:37.835Z,67.5
2016-08-07T08:09:47.846Z,67.9
2016-08-07T08:09:57.848Z,68.1
2016-08-07T08:10:07.852Z,68.8
2016-08-07T08:10:17.859Z,69.3
2016-08-07T08:10:27.868Z,69.6
2016-08-07T08:10:37.867Z,70.3
2016-08-07T08:10:47.874Z,70.5
2016-08-07T08:10:57.876Z,70.6
2016-08-07T08:11:07.882Z,71
2016-08-07T08:11:17.887Z,71.2
2016-08-07T08:11:27.894Z,70.7
2016-08-07T08:11:37.905Z,70.1
2016-08-07T08:11:47.904Z,70.3
2016-08-07T08:11:57.910Z,70.6
2016-08-07T08:12:07.912Z,70.9
2016-08-07T08:12:17.919Z,71.2
2016-08-07T08:12:27.926Z,71.6
2016-08-07T08:12:37.926Z,71.8
2016-08-07T08:12:47.935Z,71.7
2016-08-07T08:12:57.939Z,71.5
2016-08-07T08:13:07.947Z,71.2
2016-08-07T08:13:17.948Z,71.3
2016-08-07T08:13:27.221Z,71.4
2016-08-07T08:13:37.955Z,71.4
2016-08-07T08:13:47.963Z,71.8
2016-08-07T08:13:57.966Z,71.8
2016-08-07T08:14:07.973Z,72.2
2016-08-07T08:14:17.978Z,72.3
2016-08-07T08:14:27.982Z,72.1
2016-08-07T08:14:37.986Z,72.7
2016-08-07T08:14:47.994Z,72.6
2016-08-07T08:14:57.998Z,72
2016-08-07T08:15:07.272Z,71.7
2016-08-07T08:15:18.006Z,71.8
2016-08-07T08:15:28.012Z,71.8
2016-08-07T08:15:38.018Z,71.9
2016-08-07T08:15:48.023Z,72.1
2016-08-07T08:15:58.026Z,72.2
2016-08-07T08:16:08.035Z,72.4
2016-08-07T08:16:18.036Z,72
2016-08-07T08:16:28.046Z,72.1
2016-08-07T08:16:38.047Z,72.4
2016-08-07T08:16:48.051Z,73.1
2016-08-07T08:16:58.062Z,72
2016-08-07T08:17:08.060Z,71.3
2016-08-07T08:17:18.065Z,70.8
2016-08-07T08:17:28.074Z,70.4
2016-08-07T08:17:38.075Z,70.2
2016-08-07T08:17:48.129Z,70.3
2016-08-07T08:17:58.083Z,70.7
2016-08-07T08:18:08.092Z,70.9
2016-08-07T08:18:18.095Z,69.8
2016-08-07T08:18:28.107Z,70.9
2016-08-07T08:18:38.105Z,70.8
2016-08-07T08:18:48.110Z,70.4
2016-08-07T08:18:58.124Z,70.4
2016-08-07T08:19:08.121Z,70.3
2016-08-07T08:19:18.129Z,70.9
2016-08-07T08:19:28.130Z,70.8
2016-08-07T08:19:38.143Z,70.2
2016-08-07T08:19:48.141Z,70
2016-08-07T08:19:58.144Z,69.7
2016-08-07T08:20:08.150Z,69.5
2016-08-07T08:20:18.154Z,69.2
2016-08-07T08:20:28.160Z,68.9
2016-08-07T08:20:38.164Z,69.2
2016-08-07T08:20:48.181Z,69.5
2016-08-07T08:20:58.174Z,69.2
2016-08-07T08:21:08.181Z,68.6
2016-08-07T08:21:18.184Z,69.3
2016-08-07T08:21:28.190Z,69
2016-08-07T08:21:38.195Z,69.3
2016-08-07T08:21:48.200Z,68.7
2016-08-07T08:21:58.206Z,68.7
2016-08-07T08:22:08.212Z,68
2016-08-07T08:22:18.213Z,67.3
2016-08-07T08:22:28.220Z,66.9
2016-08-07T08:22:38.224Z,67
2016-08-07T08:23:08.240Z,67.2
2016-08-07T08:23:17.516Z,67.4
2016-08-07T08:23:28.254Z,67.3
2016-08-07T08:23:38.257Z,67.1
2016-08-07T08:23:48.260Z,67.6
2016-08-07T08:23:58.264Z,66.2
2016-08-07T08:24:08.277Z,66
2016-08-07T08:24:17.545Z,65.9
2016-08-07T08:24:28.281Z,65.9
2016-08-07T08:24:38.286Z,65
2016-08-07T08:24:48.291Z,64.9
2016-08-07T08:24:58.297Z,65.1
2016-08-07T08:25:08.304Z,65.3
2016-08-07T08:25:18.316Z,65.8
2016-08-07T08:25:27.603Z,65.9
2016-08-07T08:25:38.317Z,65.5
2016-08-07T08:25:48.321Z,65.8
2016-08-07T08:25:58.328Z,65.9
2016-08-07T08:26:08.335Z,65.7
2016-08-07T08:26:18.339Z,65.6
2016-08-07T08:26:28.343Z,65.9
2016-08-07T08:26:38.347Z,65.9
2016-08-07T08:26:48.355Z,65.7
2016-08-07T08:26:58.357Z,66
2016-08-07T08:27:08.362Z,66.6
2016-08-07T08:27:18.367Z,66.3
2016-08-07T08:27:28.373Z,65.9
2016-08-07T08:27:38.376Z,65.6
2016-08-07T08:27:48.386Z,65.7
2016-08-07T08:27:58.389Z,65.8
2016-08-07T08:28:08.394Z,65.2
2016-08-07T08:28:18.401Z,65.5
2016-08-07T08:28:28.410Z,65.9
2016-08-07T08:28:37.677Z,66
2016-08-07T08:28:48.416Z,66.8
2016-08-07T08:28:58.420Z,66.6
2016-08-07T08:29:08.425Z,65.6
2016-08-07T08:29:18.427Z,65.1
2016-08-07T08:29:28.433Z,65.1
2016-08-07T08:29:38.439Z,65.5
2016-08-07T08:29:48.448Z,65.5
2016-08-07T08:29:58.449Z,66.7
2016-08-07T08:30:08.452Z,66.3
2016-08-07T08:30:18.466Z,66.3
2016-08-07T08:30:28.463Z,66.8
2016-08-07T08:30:38.468Z,67.1
2016-08-07T08:30:48.474Z,67.1
2016-08-07T08:30:58.479Z,66.9
2016-08-07T08:31:08.484Z,66.9
2016-08-07T08:31:18.488Z,66.9
2016-08-07T08:31:28.493Z,67
2016-08-07T08:31:38.499Z,67.8
2016-08-07T08:31:48.552Z,68.3
2016-08-07T08:31:58.508Z,68.4
2016-08-07T08:32:08.515Z,69
2016-08-07T08:32:18.519Z,68.3
2016-08-07T08:32:28.523Z,68.2
2016-08-07T08:32:38.530Z,68.4
2016-08-07T08:32:48.583Z,67.9
2016-08-07T08:32:58.538Z,67.8
2016-08-07T08:33:08.544Z,68.4
2016-08-07T08:33:18.548Z,67.9
2016-08-07T08:33:28.556Z,67.9
2016-08-07T08:33:38.558Z,67.7
2016-08-07T08:33:48.566Z,68
2016-08-07T08:33:58.571Z,68
2016-08-07T08:34:08.576Z,67.5
2016-08-07T08:34:18.587Z,68
2016-08-07T08:34:28.585Z,68.1
2016-08-07T08:34:38.590Z,68.2
2016-08-07T08:34:48.595Z,68.8
2016-08-07T08:34:57.870Z,68.5
2016-08-07T08:35:08.601Z,68.2
2016-08-07T08:35:18.609Z,68.1
2016-08-07T08:35:28.613Z,68.3
2016-08-07T08:35:38.620Z,68.2
2016-08-07T08:35:48.627Z,68.1
2016-08-07T08:35:58.629Z,68.7
2016-08-07T08:36:08.635Z,69
2016-08-07T08:36:18.638Z,69.1
2016-08-07T08:36:28.643Z,68.8
2016-08-07T08:36:38.646Z,69.2
2016-08-07T08:36:48.653Z,69.8
2016-08-07T08:36:58.661Z,69.8
2016-08-07T08:37:08.663Z,69.8
2016-08-07T08:37:18.668Z,69.1
2016-08-07T08:37:28.674Z,69.1
2016-08-07T08:37:38.684Z,68.8
2016-08-07T08:37:47.953Z,68.8
2016-08-07T08:38:08.694Z,69
2016-08-07T08:38:18.700Z,69.8
2016-08-07T08:38:28.706Z,69.7
2016-08-07T08:38:38.709Z,69.3
2016-08-07T08:38:48.714Z,69.2
2016-08-07T08:38:58.717Z,69.7
2016-08-07T08:39:08.723Z,69.4
2016-08-07T08:39:18.729Z,69.5
2016-08-07T08:39:28.732Z,69.3
2016-08-07T08:39:38.740Z,68.9
2016-08-07T08:39:48.745Z,69.3
2016-08-07T08:39:58.750Z,69.9
2016-08-07T08:40:08.754Z,69.7
2016-08-07T08:40:18.757Z,69.8
2016-08-07T08:40:28.762Z,69.9
2016-08-07T08:40:38.828Z,70.2
2016-08-07T08:40:48.054Z,69.4
2016-08-07T08:40:58.782Z,69.2
2016-08-07T08:41:08.783Z,68.6
2016-08-07T08:41:18.791Z,69.1
2016-08-07T08:41:28.066Z,70.2
2016-08-07T08:41:38.801Z,70.5
2016-08-07T08:41:48.805Z,70.7
2016-08-07T08:41:58.819Z,71.1
2016-08-07T08:42:08.812Z,70.8
2016-08-07T08:42:18.817Z,70.7
2016-08-07T08:42:28.825Z,70
2016-08-07T08:42:38.830Z,70.3
2016-08-07T08:42:48.836Z,69.8
2016-08-07T08:42:58.838Z,69.8
2016-08-07T08:43:08.843Z,70
2016-08-07T08:43:18.850Z,70
2016-08-07T08:43:28.851Z,69.4
2016-08-07T08:43:38.858Z,69.1
2016-08-07T08:43:48.862Z,69.1
2016-08-07T08:43:58.868Z,69.2
2016-08-07T08:44:08.873Z,68.9
2016-08-07T08:44:18.875Z,68.7
2016-08-07T08:44:28.882Z,68.8
2016-08-07T08:44:38.886Z,68.8
2016-08-07T08:44:48.893Z,69.2
2016-08-07T08:44:58.899Z,69.4
2016-08-07T08:45:08.173Z,69.8
2016-08-07T08:45:18.906Z,70
2016-08-07T08:45:28.911Z,69.2
2016-08-07T08:45:38.922Z,69.3
2016-08-07T08:45:48.918Z,69.3
2016-08-07T08:45:58.197Z,69.2
2016-08-07T08:46:08.932Z,70
2016-08-07T08:46:18.935Z,69.9
2016-08-07T08:46:28.212Z,69.9
2016-08-07T08:46:38.946Z,68.7
2016-08-07T08:46:48.951Z,69.1
2016-08-07T08:46:58.962Z,69.3
2016-08-07T08:47:08.961Z,69.2
2016-08-07T08:47:18.233Z,69.3
2016-08-07T08:47:28.982Z,69.2
2016-08-07T08:47:38.973Z,68.9
2016-08-07T08:47:48.251Z,69.2
2016-08-07T08:47:58.990Z,68.9
2016-08-07T08:48:09.004Z,69.2
2016-08-07T08:48:18.994Z,69.2
2016-08-07T08:48:29.004Z,69.4
2016-08-07T08:48:39.004Z,69.5
2016-08-07T08:48:49.011Z,69.1
2016-08-07T08:48:59.013Z,68.8
2016-08-07T08:49:09.025Z,68.8
2016-08-07T08:49:19.024Z,68.1
2016-08-07T08:49:29.030Z,68.5
2016-08-07T08:49:39.031Z,69.3
2016-08-07T08:49:49.037Z,69
2016-08-07T08:49:59.041Z,69.4
2016-08-07T08:50:09.047Z,70
2016-08-07T08:50:19.053Z,69.4
2016-08-07T08:50:29.061Z,69.8
2016-08-07T08:50:39.065Z,68.8
2016-08-07T08:50:49.067Z,68.9
2016-08-07T08:50:59.070Z,67.9
2016-08-07T08:51:09.076Z,67.9
2016-08-07T08:51:19.097Z,67.8
2016-08-07T08:51:29.086Z,67.8
2016-08-07T08:51:39.091Z,67.8
2016-08-07T08:51:49.097Z,67.9
2016-08-07T08:51:59.102Z,68
2016-08-07T08:52:09.103Z,68.3
2016-08-07T08:52:19.121Z,68.3
2016-08-07T08:52:29.118Z,68.1
2016-08-07T08:52:39.120Z,68.2
2016-08-07T08:52:49.125Z,67.8
2016-08-07T08:53:19.139Z,68.2
2016-08-07T08:53:29.144Z,67.5
2016-08-07T08:53:39.149Z,67.4
2016-08-07T08:53:48.428Z,66.6
2016-08-07T08:53:59.159Z,65.9
2016-08-07T08:54:09.165Z,64.4
2016-08-07T08:54:19.170Z,64.3
2016-08-07T08:54:29.175Z,63.7
2016-08-07T08:54:39.180Z,63.3
2016-08-07T08:54:49.201Z,62.9
2016-08-07T08:54:59.192Z,63.1
2016-08-07T08:55:09.202Z,63.4
2016-08-07T08:55:19.202Z,63.2
2016-08-07T08:55:29.207Z,62.7
2016-08-07T08:55:39.212Z,62.1
2016-08-07T08:55:48.490Z,62.7
2016-08-07T08:55:59.222Z,62.8
2016-08-07T08:56:09.231Z,62.8
2016-08-07T08:56:19.230Z,62.1
2016-08-07T08:56:29.235Z,61.3
2016-08-07T08:56:39.246Z,61.7
2016-08-07T08:56:49.313Z,61.7
2016-08-07T08:56:59.306Z,61.6
2016-08-07T08:57:09.257Z,61.7
2016-08-07T08:57:19.266Z,61.9
2016-08-07T08:57:29.266Z,61.7
2016-08-07T08:57:39.271Z,61
2016-08-07T08:57:49.277Z,61.3
2016-08-07T08:57:59.283Z,60.7
2016-08-07T08:58:09.293Z,60.7
2016-08-07T08:58:18.607Z,60.6
2016-08-07T08:58:29.299Z,59.6
2016-08-07T08:58:39.304Z,59.5
2016-08-07T08:58:49.310Z,59.4
2016-08-07T08:58:59.315Z,60.3
2016-08-07T08:59:09.330Z,61
2016-08-07T08:59:19.329Z,60.6
2016-08-07T08:59:29.330Z,60.9
2016-08-07T08:59:39.337Z,61
2016-08-07T08:59:49.345Z,60.8
2016-08-07T08:59:59.348Z,60.6
2016-08-07T09:00:09.352Z,60.8
2016-08-07T09:00:19.358Z,60.8
2016-08-07T09:00:29.371Z,60.8
2016-08-07T09:00:39.379Z,60.9
2016-08-07T09:00:49.389Z,60.6
2016-08-07T09:00:59.379Z,60.7
2016-08-07T09:01:09.387Z,60.9
2016-08-07T09:01:19.392Z,60.9
2016-08-07T09:01:29.395Z,60.2
2016-08-07T09:01:39.400Z,60
2016-08-07T09:01:49.408Z,59.3
2016-08-07T09:01:59.416Z,58.5
2016-08-07T09:02:09.418Z,58.2
2016-08-07T09:02:19.424Z,57.9
2016-08-07T09:02:29.428Z,57.7
2016-08-07T09:02:39.434Z,58.1
2016-08-07T09:02:49.439Z,58.3
2016-08-07T09:02:59.442Z,57.9
2016-08-07T09:03:09.450Z,57
2016-08-07T09:03:19.456Z,56.6
2016-08-07T09:03:29.460Z,56.4
2016-08-07T09:03:39.471Z,56.5
2016-08-07T09:03:49.476Z,56.7
2016-08-07T09:03:59.483Z,56.7
2016-08-07T09:04:09.542Z,57.2
2016-08-07T09:04:19.499Z,57.2
2016-08-07T09:04:29.493Z,56.8
2016-08-07T09:04:39.502Z,57
2016-08-07T09:04:49.508Z,57.6
2016-08-07T09:04:59.514Z,58.1
2016-08-07T09:05:08.789Z,58.1
2016-08-07T09:05:19.522Z,58.8
2016-08-07T09:05:29.547Z,58.7
2016-08-07T09:05:39.538Z,59
2016-08-07T09:05:49.538Z,59.4
2016-08-07T09:05:59.547Z,59.6
2016-08-07T09:06:09.558Z,59.9
2016-08-07T09:06:19.555Z,60
2016-08-07T09:06:29.563Z,60.3
2016-08-07T09:06:39.568Z,60.1
2016-08-07T09:06:49.573Z,59.9
2016-08-07T09:06:59.578Z,59.8
2016-08-07T09:07:09.583Z,59.8
2016-08-07T09:07:18.862Z,60.1
2016-08-07T09:07:28.866Z,60.5
2016-08-07T09:07:39.599Z,60.8
2016-08-07T09:07:49.606Z,61.5
2016-08-07T09:07:59.616Z,62.1
2016-08-07T09:08:19.619Z,62.8
2016-08-07T09:08:29.627Z,62.2
2016-08-07T09:08:39.672Z,61.9
2016-08-07T09:08:49.637Z,62.3
2016-08-07T09:08:59.646Z,62.1
2016-08-07T09:09:09.652Z,62.8
2016-08-07T09:09:19.657Z,62.7
2016-08-07T09:09:29.657Z,62.7
2016-08-07T09:09:39.663Z,62.6
2016-08-07T09:09:49.672Z,62.6
2016-08-07T09:09:59.676Z,62.6
2016-08-07T09:10:09.680Z,63.1
2016-08-07T09:10:19.684Z,63.5
2016-08-07T09:10:29.690Z,64.3
2016-08-07T09:10:39.697Z,64
2016-08-07T09:10:49.699Z,63.6
2016-08-07T09:10:59.706Z,63.6
2016-08-07T09:11:09.713Z,63.7
2016-08-07T09:11:19.717Z,63.8
2016-08-07T09:11:29.724Z,64.3
2016-08-07T09:11:39.730Z,64.4
2016-08-07T09:11:49.900Z,64.5
2016-08-07T09:11:59.737Z,64.3
2016-08-07T09:12:09.756Z,64.4
2016-08-07T09:12:19.759Z,65.1
2016-08-07T09:12:29.754Z,65.2
2016-08-07T09:12:39.784Z,64.4
2016-08-07T09:12:49.765Z,63.9
2016-08-07T09:12:59.769Z,64.1
2016-08-07T09:13:09.779Z,63.9
2016-08-07T09:13:19.780Z,64.7
2016-08-07T09:13:29.785Z,64.1
2016-08-07T09:13:39.791Z,63.9
2016-08-07T09:13:49.798Z,64
2016-08-07T09:13:59.801Z,64.1
2016-08-07T09:14:09.077Z,64.6
2016-08-07T09:14:19.829Z,64
2016-08-07T09:14:29.819Z,64.6
2016-08-07T09:14:39.823Z,64.2
2016-08-07T09:14:49.836Z,64.4
2016-08-07T09:14:59.833Z,64.3
2016-08-07T09:15:09.838Z,64.2
2016-08-07T09:15:19.855Z,63.8
2016-08-07T09:15:29.850Z,63.1
2016-08-07T09:15:39.855Z,62.6
2016-08-07T09:15:49.862Z,62.8
2016-08-07T09:15:59.138Z,62.8
2016-08-07T09:16:09.872Z,62.6
2016-08-07T09:16:19.873Z,62
2016-08-07T09:16:29.886Z,62.5
2016-08-07T09:16:39.885Z,61.8
2016-08-07T09:16:49.891Z,61.3
2016-08-07T09:16:59.896Z,60.7
2016-08-07T09:17:09.902Z,60.3
2016-08-07T09:17:19.912Z,59.6
2016-08-07T09:17:29.912Z,58.2
2016-08-07T09:17:39.917Z,58.3
2016-08-07T09:17:49.920Z,59.5
2016-08-07T09:17:59.927Z,58.9
2016-08-07T09:18:09.934Z,58.4
2016-08-07T09:18:19.939Z,56.8
2016-08-07T09:18:29.954Z,56.6
2016-08-07T09:18:39.948Z,57.1
2016-08-07T09:18:49.958Z,57.2
2016-08-07T09:18:59.964Z,57.4
2016-08-07T09:19:09.967Z,56.7
2016-08-07T09:19:19.973Z,55.7
2016-08-07T09:19:29.980Z,55.8
2016-08-07T09:19:39.986Z,54.4
2016-08-07T09:19:49.989Z,52.5
2016-08-07T09:19:59.999Z,51.7
2016-08-07T09:20:10.001Z,51.5
2016-08-07T09:20:20.007Z,51
2016-08-07T09:20:30.023Z,50
2016-08-07T09:20:40.018Z,50.6
2016-08-07T09:20:50.021Z,50.1
2016-08-07T09:21:00.030Z,50.1
2016-08-07T09:21:10.039Z,49.7
2016-08-07T09:21:20.072Z,47.9
2016-08-07T09:21:30.047Z,46.9
2016-08-07T09:21:40.052Z,46.2
2016-08-07T09:21:50.060Z,46
2016-08-07T09:22:00.065Z,45.7
2016-08-07T09:22:10.069Z,45.4
2016-08-07T09:22:20.077Z,46.1
2016-08-07T09:22:29.355Z,45.3
2016-08-07T09:22:40.090Z,44.3
2016-08-07T09:22:50.096Z,44.3
2016-08-07T09:23:00.104Z,44.5
2016-08-07T09:23:10.107Z,44.8
2016-08-07T09:23:30.118Z,45.3
2016-08-07T09:23:40.128Z,45
2016-08-07T09:23:50.134Z,44.5
2016-08-07T09:24:00.189Z,44.1
2016-08-07T09:24:10.147Z,43.6
2016-08-07T09:24:19.422Z,43.4
2016-08-07T09:24:30.158Z,43.2
2016-08-07T09:24:40.166Z,42.6
2016-08-07T09:24:50.171Z,43
2016-08-07T09:25:00.179Z,42.7
2016-08-07T09:25:10.184Z,42.3
2016-08-07T09:25:20.190Z,41.7
2016-08-07T09:25:29.467Z,41.2
2016-08-07T09:25:40.202Z,42
2016-08-07T09:25:50.215Z,42.4
2016-08-07T09:26:00.215Z,43.6
2016-08-07T09:26:10.223Z,42.9
2016-08-07T09:26:20.227Z,42.3
2016-08-07T09:26:30.236Z,42.3
2016-08-07T09:26:40.243Z,42.6
2016-08-07T09:26:50.250Z,42
2016-08-07T09:27:00.254Z,41.5
2016-08-07T09:27:10.263Z,41.5
2016-08-07T09:27:20.274Z,41.4
2016-08-07T09:27:30.277Z,40.8
2016-08-07T09:27:40.281Z,41.1
2016-08-07T09:27:50.286Z,42.2
2016-08-07T09:28:00.293Z,42.3
2016-08-07T09:28:10.303Z,42
2016-08-07T09:28:20.307Z,42.5
2016-08-07T09:28:30.316Z,42
2016-08-07T09:28:40.323Z,41.9
2016-08-07T09:28:50.329Z,40.8
2016-08-07T09:29:00.333Z,40.9
2016-08-07T09:29:10.340Z,40.8
2016-08-07T09:29:20.344Z,41.1
2016-08-07T09:29:30.356Z,41.9
2016-08-07T09:29:40.357Z,42
2016-08-07T09:29:50.373Z,42.2
2016-08-07T09:30:00.370Z,43.1
2016-08-07T09:30:10.384Z,43.8
2016-08-07T09:30:20.395Z,44.9
2016-08-07T09:30:30.392Z,45.1
2016-08-07T09:30:40.403Z,45.2
2016-08-07T09:30:50.408Z,45.3
2016-08-07T09:31:00.408Z,45.6
2016-08-07T09:31:10.414Z,46.6
2016-08-07T09:31:20.426Z,47
2016-08-07T09:31:30.430Z,47.1
2016-08-07T09:31:40.436Z,47
2016-08-07T09:31:50.441Z,47.1
2016-08-07T09:32:00.446Z,47.7
2016-08-07T09:32:10.464Z,48
2016-08-07T09:32:20.459Z,48.1
2016-08-07T09:32:30.465Z,48.2
2016-08-07T09:32:40.471Z,48.5
2016-08-07T09:32:50.479Z,48.5
2016-08-07T09:33:00.486Z,48.8
2016-08-07T09:33:10.492Z,48.7
2016-08-07T09:33:20.497Z,48.4
2016-08-07T09:33:30.503Z,48.5
2016-08-07T09:33:40.508Z,48.7
2016-08-07T09:33:49.786Z,49.8
2016-08-07T09:34:00.524Z,50.6
2016-08-07T09:34:10.527Z,51.1
2016-08-07T09:34:20.535Z,51.1
2016-08-07T09:34:30.542Z,51
2016-08-07T09:34:40.547Z,50.8
2016-08-07T09:34:50.553Z,50.9
2016-08-07T09:35:00.556Z,51.1
2016-08-07T09:35:09.835Z,51.6
2016-08-07T09:35:20.569Z,51.5
2016-08-07T09:35:30.577Z,51.1
2016-08-07T09:35:40.585Z,50.8
2016-08-07T09:35:50.590Z,50.6
2016-08-07T09:36:00.595Z,50.7
2016-08-07T09:36:10.600Z,50.7
2016-08-07T09:36:20.612Z,50.8
2016-08-07T09:36:30.611Z,50.7
2016-08-07T09:36:40.617Z,49.8
2016-08-07T09:36:50.626Z,50
2016-08-07T09:37:00.631Z,49.6
2016-08-07T09:37:10.643Z,49.3
2016-08-07T09:37:20.642Z,49.1
2016-08-07T09:37:30.648Z,49.7
2016-08-07T09:37:40.657Z,48.9
2016-08-07T09:37:50.666Z,48.2
2016-08-07T09:38:00.669Z,48.1
2016-08-07T09:38:10.670Z,47.6
2016-08-07T09:38:20.677Z,46.9
2016-08-07T09:38:40.688Z,46.8
2016-08-07T09:38:50.698Z,47.3
2016-08-07T09:39:00.699Z,48.1
2016-08-07T09:39:10.707Z,48.8
2016-08-07T09:39:20.713Z,48.9
2016-08-07T09:39:30.717Z,49.8
2016-08-07T09:39:40.725Z,49.8
2016-08-07T09:39:50.729Z,50.1
2016-08-07T09:40:00.736Z,49.8
2016-08-07T09:40:10.742Z,50.4
2016-08-07T09:40:20.746Z,50.8
2016-08-07T09:40:30.028Z,50.6
2016-08-07T09:40:40.763Z,50.3
2016-08-07T09:40:50.764Z,49.9
2016-08-07T09:41:00.768Z,50.7
2016-08-07T09:41:10.774Z,50.7
2016-08-07T09:41:20.784Z,50.4
2016-08-07T09:41:30.060Z,49.1
2016-08-07T09:41:40.795Z,48.5
2016-08-07T09:41:50.850Z,48.6
2016-08-07T09:42:00.807Z,48.4
2016-08-07T09:42:10.810Z,48.5
2016-08-07T09:42:20.816Z,48.4
2016-08-07T09:42:30.828Z,48.3
2016-08-07T09:42:40.823Z,48.5
2016-08-07T09:42:50.833Z,48.6
2016-08-07T09:43:00.843Z,48.7
2016-08-07T09:43:10.844Z,49.2
2016-08-07T09:43:20.852Z,48.8
2016-08-07T09:43:30.855Z,49.7
2016-08-07T09:43:40.860Z,50
2016-08-07T09:43:50.866Z,50.2
2016-08-07T09:44:00.871Z,50.9
2016-08-07T09:44:10.876Z,51.5
2016-08-07T09:44:20.884Z,51.1
2016-08-07T09:44:30.887Z,50.8
2016-08-07T09:44:40.900Z,50.8
2016-08-07T09:44:50.899Z,50.8
2016-08-07T09:45:00.907Z,51.2
2016-08-07T09:45:10.913Z,51.6
2016-08-07T09:45:20.917Z,51.9
2016-08-07T09:45:30.924Z,51.5
2016-08-07T09:45:40.929Z,52
2016-08-07T09:45:50.936Z,52.5
2016-08-07T09:46:00.939Z,51.8
2016-08-07T09:46:10.944Z,51.8
2016-08-07T09:46:20.955Z,52.6
2016-08-07T09:46:30.958Z,52.8
2016-08-07T09:46:40.960Z,53
2016-08-07T09:46:50.966Z,53.5
2016-08-07T09:47:00.980Z,53.4
2016-08-07T09:47:10.977Z,53.2
2016-08-07T09:47:20.984Z,53.1
2016-08-07T09:47:30.991Z,53.4
2016-08-07T09:47:40.995Z,53.5
2016-08-07T09:47:51.002Z,53.9
2016-08-07T09:48:01.011Z,54.8
2016-08-07T09:48:10.283Z,55.9
2016-08-07T09:48:21.016Z,56.1
2016-08-07T09:48:31.022Z,56.8
2016-08-07T09:48:41.029Z,56.3
2016-08-07T09:48:51.032Z,56.4
2016-08-07T09:49:01.043Z,57.1
2016-08-07T09:49:11.044Z,57
2016-08-07T09:49:21.048Z,57.8
2016-08-07T09:49:31.058Z,58
2016-08-07T09:49:41.062Z,57.6
2016-08-07T09:49:51.066Z,57.1
2016-08-07T09:50:01.074Z,57.8
2016-08-07T09:50:11.077Z,57.6
2016-08-07T09:50:21.083Z,56.7
2016-08-07T09:50:31.099Z,56
2016-08-07T09:50:40.364Z,55.6
2016-08-07T09:50:51.102Z,54.6
2016-08-07T09:51:00.373Z,54.6
2016-08-07T09:51:11.108Z,54.6
2016-08-07T09:51:21.115Z,55.1
2016-08-07T09:51:31.122Z,54.5
2016-08-07T09:51:41.128Z,54.3
2016-08-07T09:51:51.133Z,55.2
2016-08-07T09:52:01.135Z,56.9
2016-08-07T09:52:11.148Z,57.9
2016-08-07T09:52:21.149Z,58.1
2016-08-07T09:52:31.159Z,57.1
2016-08-07T09:52:41.161Z,56.5
2016-08-07T09:52:51.174Z,56.1
2016-08-07T09:53:01.169Z,55.3
2016-08-07T09:53:11.175Z,56.2
2016-08-07T09:53:31.187Z,57.6
2016-08-07T09:53:41.191Z,57.6
2016-08-07T09:53:51.196Z,57.2
2016-08-07T09:54:01.203Z,58
2016-08-07T09:54:11.210Z,58.3
2016-08-07T09:54:21.210Z,58.8
2016-08-07T09:54:31.219Z,58.8
2016-08-07T09:54:41.220Z,58.9
2016-08-07T09:54:51.231Z,59.7
2016-08-07T09:55:01.234Z,59.1
2016-08-07T09:55:11.238Z,59.5
2016-08-07T09:55:21.247Z,60.1
2016-08-07T09:55:31.247Z,59.5
2016-08-07T09:55:41.253Z,59
2016-08-07T09:55:51.262Z,58.1
2016-08-07T09:56:01.263Z,58.1
2016-08-07T09:56:11.279Z,58.1
2016-08-07T09:56:21.277Z,58.3
2016-08-07T09:56:31.282Z,58.8
2016-08-07T09:56:41.287Z,58.7
2016-08-07T09:56:51.290Z,58.8
2016-08-07T09:57:01.302Z,59.4
2016-08-07T09:57:11.310Z,59.2
2016-08-07T09:57:21.307Z,59
2016-08-07T09:57:31.313Z,58.9
2016-08-07T09:57:41.321Z,58.5
2016-08-07T09:57:51.326Z,58.3
2016-08-07T09:58:01.332Z,58.3
2016-08-07T09:58:11.337Z,58.8
2016-08-07T09:58:21.338Z,58.8
2016-08-07T09:58:31.348Z,58.4
2016-08-07T09:58:41.348Z,58.1
2016-08-07T09:58:51.361Z,58.9
2016-08-07T09:59:00.633Z,59.2
2016-08-07T09:59:11.367Z,59.4
2016-08-07T09:59:21.370Z,59.1
2016-08-07T09:59:31.378Z,58.9
2016-08-07T09:59:41.387Z,58.7
2016-08-07T09:59:51.384Z,59.2
2016-08-07T10:00:01.392Z,59.4
2016-08-07T10:00:11.396Z,59.4
2016-08-07T10:00:21.401Z,59.5
2016-08-07T10:00:31.407Z,60.3
2016-08-07T10:00:41.412Z,61
2016-08-07T10:00:51.416Z,61.8
2016-08-07T10:01:01.470Z,62.1
2016-08-07T10:01:11.431Z,61.7
2016-08-07T10:01:21.432Z,61
2016-08-07T10:01:30.707Z,60.3
2016-08-07T10:01:41.446Z,60.6
2016-08-07T10:01:51.449Z,60.7
2016-08-07T10:02:01.455Z,60.6
2016-08-07T10:02:11.457Z,60.4
2016-08-07T10:02:21.465Z,60.4
2016-08-07T10:02:31.470Z,60.5
2016-08-07T10:02:41.475Z,60.3
2016-08-07T10:02:51.487Z,60.8
2016-08-07T10:03:01.487Z,61.6
2016-08-07T10:03:11.491Z,61.6
2016-08-07T10:03:21.494Z,61.6
2016-08-07T10:03:31.499Z,62
2016-08-07T10:03:41.506Z,61.7
2016-08-07T10:03:51.510Z,61.3
2016-08-07T10:04:01.515Z,60.8
2016-08-07T10:04:11.521Z,61.1
2016-08-07T10:04:21.524Z,61.3
2016-08-07T10:04:31.535Z,61.4
2016-08-07T10:04:41.542Z,61.2
2016-08-07T10:04:51.635Z,61.9
2016-08-07T10:05:01.546Z,62.7
2016-08-07T10:05:10.821Z,62.9
2016-08-07T10:05:21.555Z,63
2016-08-07T10:05:30.836Z,63.3
2016-08-07T10:05:41.567Z,63